createdAt,value
2022-11-27T00:00:35.213Z,1020.9
2022-11-27T00:01:35.214Z,1020.8
2022-11-27T00:02:40.281Z,1020.8
2022-11-27T00:03:35.359Z,1020.8
2022-11-27T00:04:35.202Z,1020.8
2022-11-27T00:05:35.220Z,1020.8
2022-11-27T00:06:35.206Z,1020.8
2022-11-27T00:07:35.308Z,1020.8
2022-11-27T00:08:35.205Z,1020.7
2022-11-27T00:09:35.211Z,1020.7
2022-11-27T00:10:35.208Z,1020.7
2022-11-27T00:11:35.209Z,1020.8
2022-11-27T00:12:35.208Z,1020.8
2022-11-27T00:13:35.219Z,1020.8
2022-11-27T00:14:35.216Z,1020.8
2022-11-27T00:15:35.256Z,1020.8
2022-11-27T00:16:35.221Z,1020.7
2022-11-27T00:17:35.217Z,1020.7
2022-11-27T00:18:35.211Z,1020.8
2022-11-27T00:19:35.210Z,1020.8
2022-11-27T00:20:35.211Z,1020.7
2022-11-27T00:21:35.275Z,1020.7
2022-11-27T00:22:35.210Z,1020.7
2022-11-27T00:23:35.209Z,1020.7
2022-11-27T00:24:35.205Z,1020.7
2022-11-27T00:25:35.213Z,1020.7
2022-11-27T00:26:38.111Z,1020.7
2022-11-27T00:27:35.213Z,1020.7
2022-11-27T00:28:35.230Z,1020.7
2022-11-27T00:29:35.210Z,1020.7
2022-11-27T00:30:35.204Z,1020.7
2022-11-27T00:31:35.257Z,1020.7
2022-11-27T00:32:35.223Z,1020.7
2022-11-27T00:34:35.216Z,1020.7
2022-11-27T00:35:35.214Z,1020.8
2022-11-27T00:36:35.213Z,1020.7
2022-11-27T00:37:35.242Z,1020.8
2022-11-27T00:38:38.812Z,1020.8
2022-11-27T00:39:35.209Z,1020.7
2022-11-27T00:40:35.221Z,1020.7
2022-11-27T00:41:35.231Z,1020.7
2022-11-27T00:42:35.205Z,1020.7
2022-11-27T00:43:43.476Z,1020.7
2022-11-27T00:44:35.218Z,1020.7
2022-11-27T00:45:35.213Z,1020.6
2022-11-27T00:46:35.269Z,1020.6
2022-11-27T00:47:35.211Z,1020.6
2022-11-27T00:48:35.208Z,1020.7
2022-11-27T00:49:35.215Z,1020.7
2022-11-27T00:51:35.209Z,1020.6
2022-11-27T00:52:35.236Z,1020.6
2022-11-27T00:53:35.216Z,1020.6
2022-11-27T00:54:35.208Z,1020.7
2022-11-27T00:56:35.223Z,1020.6
2022-11-27T00:57:35.225Z,1020.6
2022-11-27T00:58:35.262Z,1020.6
2022-11-27T00:59:35.212Z,1020.7
2022-11-27T01:00:35.220Z,1020.7
2022-11-27T01:01:35.329Z,1020.6
2022-11-27T01:02:35.339Z,1020.6
2022-11-27T01:03:35.242Z,1020.7
2022-11-27T01:04:35.222Z,1020.7
2022-11-27T01:05:35.239Z,1020.6
2022-11-27T01:06:35.215Z,1020.6
2022-11-27T01:07:35.305Z,1020.6
2022-11-27T01:08:35.208Z,1020.5
2022-11-27T01:09:35.212Z,1020.5
2022-11-27T01:10:35.223Z,1020.4
2022-11-27T01:11:35.208Z,1020.4
2022-11-27T01:12:35.208Z,1020.5
2022-11-27T01:13:35.205Z,1020.4
2022-11-27T01:14:35.212Z,1020.5
2022-11-27T01:15:35.259Z,1020.4
2022-11-27T01:16:35.343Z,1020.4
2022-11-27T01:17:35.230Z,1020.4
2022-11-27T01:18:35.208Z,1020.4
2022-11-27T01:19:35.211Z,1020.4
2022-11-27T01:20:35.211Z,1020.4
2022-11-27T01:21:35.211Z,1020.3
2022-11-27T01:22:35.230Z,1020.4
2022-11-27T01:23:35.243Z,1020.3
2022-11-27T01:24:35.209Z,1020.3
2022-11-27T01:25:35.209Z,1020.4
2022-11-27T01:26:35.221Z,1020.3
2022-11-27T01:27:35.221Z,1020.4
2022-11-27T01:28:35.213Z,1020.4
2022-11-27T01:29:35.213Z,1020.4
2022-11-27T01:30:35.223Z,1020.4
2022-11-27T01:31:35.264Z,1020.4
2022-11-27T01:32:35.207Z,1020.4
2022-11-27T01:33:35.214Z,1020.5
2022-11-27T01:34:35.252Z,1020.4
2022-11-27T01:35:35.222Z,1020.4
2022-11-27T01:36:35.205Z,1020.4
2022-11-27T01:38:35.216Z,1020.2
2022-11-27T01:39:35.214Z,1020.3
2022-11-27T01:40:35.220Z,1020.3
2022-11-27T01:41:35.212Z,1020.3
2022-11-27T01:42:35.217Z,1020.3
2022-11-27T01:43:35.231Z,1020.2
2022-11-27T01:44:35.254Z,1020.3
2022-11-27T01:45:35.210Z,1020.3
2022-11-27T01:46:35.291Z,1020.2
2022-11-27T01:47:35.209Z,1020.3
2022-11-27T01:48:35.215Z,1020.3
2022-11-27T01:49:35.220Z,1020.3
2022-11-27T01:50:35.209Z,1020.3
2022-11-27T01:51:35.220Z,1020.3
2022-11-27T01:52:35.206Z,1020.3
2022-11-27T01:53:35.211Z,1020.3
2022-11-27T01:54:35.234Z,1020.3
2022-11-27T01:55:35.212Z,1020.3
2022-11-27T01:56:35.223Z,1020.3
2022-11-27T01:57:35.237Z,1020.2
2022-11-27T01:58:35.215Z,1020.3
2022-11-27T01:59:35.215Z,1020.3
2022-11-27T02:00:35.217Z,1020.3
2022-11-27T02:01:35.348Z,1020.2
2022-11-27T02:02:35.266Z,1020.2
2022-11-27T02:03:35.209Z,1020.2
2022-11-27T02:04:35.211Z,1020.1
2022-11-27T02:05:35.209Z,1020.2
2022-11-27T02:06:35.216Z,1020.2
2022-11-27T02:07:35.236Z,1020.1
2022-11-27T02:08:35.214Z,1020.1
2022-11-27T02:09:35.225Z,1020.1
2022-11-27T02:10:35.228Z,1020.2
2022-11-27T02:12:35.215Z,1020.1
2022-11-27T02:13:35.209Z,1020.1
2022-11-27T02:14:35.216Z,1020.1
2022-11-27T02:15:35.224Z,1020
2022-11-27T02:17:35.214Z,1020
2022-11-27T02:18:35.209Z,1020.1
2022-11-27T02:19:35.213Z,1020.1
2022-11-27T02:20:35.210Z,1020.1
2022-11-27T02:21:35.212Z,1020
2022-11-27T02:22:35.211Z,1020
2022-11-27T02:23:35.208Z,1020.1
2022-11-27T02:24:35.209Z,1020.1
2022-11-27T02:25:35.211Z,1020.1
2022-11-27T02:26:35.215Z,1020.1
2022-11-27T02:27:35.218Z,1020.1
2022-11-27T02:28:35.218Z,1020.1
2022-11-27T02:29:35.212Z,1020.1
2022-11-27T02:30:35.232Z,1020.1
2022-11-27T02:31:35.309Z,1020.1
2022-11-27T02:32:35.212Z,1020.1
2022-11-27T02:33:35.210Z,1020
2022-11-27T02:34:35.216Z,1020
2022-11-27T02:35:35.216Z,1019.9
2022-11-27T02:36:35.217Z,1020
2022-11-27T02:37:35.207Z,1019.9
2022-11-27T02:38:35.211Z,1019.9
2022-11-27T02:39:35.213Z,1019.9
2022-11-27T02:40:35.214Z,1019.8
2022-11-27T02:41:35.219Z,1019.8
2022-11-27T02:42:35.209Z,1019.8
2022-11-27T02:43:35.212Z,1019.7
2022-11-27T02:44:35.210Z,1019.8
2022-11-27T02:45:35.213Z,1019.7
2022-11-27T02:46:35.317Z,1019.7
2022-11-27T02:47:35.218Z,1019.6
2022-11-27T02:48:35.220Z,1019.7
2022-11-27T02:49:35.215Z,1019.6
2022-11-27T02:50:35.209Z,1019.6
2022-11-27T02:51:35.220Z,1019.6
2022-11-27T02:52:35.215Z,1019.6
2022-11-27T02:53:35.214Z,1019.6
2022-11-27T02:54:35.212Z,1019.6
2022-11-27T02:55:35.217Z,1019.5
2022-11-27T02:56:35.211Z,1019.5
2022-11-27T02:57:35.414Z,1019.5
2022-11-27T02:58:35.213Z,1019.4
2022-11-27T02:59:35.212Z,1019.5
2022-11-27T03:00:35.212Z,1019.4
2022-11-27T03:01:35.273Z,1019.4
2022-11-27T03:02:35.302Z,1019.4
2022-11-27T03:03:35.223Z,1019.4
2022-11-27T03:04:35.216Z,1019.4
2022-11-27T03:05:35.222Z,1019.3
2022-11-27T03:06:35.218Z,1019.4
2022-11-27T03:07:35.308Z,1019.4
2022-11-27T03:08:35.210Z,1019.4
2022-11-27T03:09:35.213Z,1019.3
2022-11-27T03:10:35.235Z,1019.3
2022-11-27T03:11:35.216Z,1019.4
2022-11-27T03:12:35.215Z,1019.3
2022-11-27T03:13:35.210Z,1019.3
2022-11-27T03:14:35.214Z,1019.3
2022-11-27T03:16:35.302Z,1019.2
2022-11-27T03:17:35.214Z,1019.3
2022-11-27T03:18:35.210Z,1019.2
2022-11-27T03:19:35.217Z,1019.2
2022-11-27T03:20:35.219Z,1019.2
2022-11-27T03:21:35.212Z,1019.2
2022-11-27T03:22:35.211Z,1019.2
2022-11-27T03:23:35.214Z,1019.2
2022-11-27T03:24:35.221Z,1019.2
2022-11-27T03:25:35.206Z,1019.2
2022-11-27T03:26:35.218Z,1019.3
2022-11-27T03:27:35.212Z,1019.2
2022-11-27T03:28:35.337Z,1019.2
2022-11-27T03:29:35.215Z,1019.2
2022-11-27T03:30:35.221Z,1019.2
2022-11-27T03:31:35.310Z,1019.3
2022-11-27T03:32:35.210Z,1019.2
2022-11-27T03:33:35.233Z,1019.3
2022-11-27T03:34:35.214Z,1019.3
2022-11-27T03:35:35.225Z,1019.2
2022-11-27T03:36:35.214Z,1019.2
2022-11-27T03:37:35.214Z,1019.2
2022-11-27T03:38:35.213Z,1019.2
2022-11-27T03:39:35.240Z,1019.2
2022-11-27T03:40:35.219Z,1019.2
2022-11-27T03:41:35.217Z,1019.2
2022-11-27T03:42:35.501Z,1019.2
2022-11-27T03:43:35.224Z,1019.2
2022-11-27T03:44:35.219Z,1019.2
2022-11-27T03:45:35.219Z,1019.2
2022-11-27T03:46:35.282Z,1019.2
2022-11-27T03:47:35.347Z,1019.2
2022-11-27T03:48:35.215Z,1019.2
2022-11-27T03:49:35.225Z,1019.2
2022-11-27T03:50:35.300Z,1019.1
2022-11-27T03:51:36.248Z,1019.2
2022-11-27T03:52:35.211Z,1019.2
2022-11-27T03:53:35.218Z,1019.2
2022-11-27T03:55:35.211Z,1019.1
2022-11-27T03:56:35.254Z,1019.1
2022-11-27T03:57:35.218Z,1019.1
2022-11-27T03:58:35.223Z,1019
2022-11-27T03:59:35.348Z,1019
2022-11-27T04:00:35.212Z,1019
2022-11-27T04:01:35.251Z,1019
2022-11-27T04:02:35.207Z,1019
2022-11-27T04:03:35.258Z,1019
2022-11-27T04:04:35.214Z,1018.9
2022-11-27T04:05:35.222Z,1018.9
2022-11-27T04:06:35.217Z,1018.9
2022-11-27T04:07:35.301Z,1018.8
2022-11-27T04:08:35.218Z,1018.8
2022-11-27T04:09:35.225Z,1018.8
2022-11-27T04:10:35.217Z,1018.8
2022-11-27T04:11:35.216Z,1018.8
2022-11-27T04:12:35.221Z,1018.7
2022-11-27T04:13:35.224Z,1018.8
2022-11-27T04:14:35.257Z,1018.7
2022-11-27T04:16:35.335Z,1018.7
2022-11-27T04:17:35.225Z,1018.7
2022-11-27T04:18:35.221Z,1018.7
2022-11-27T04:19:35.244Z,1018.7
2022-11-27T04:20:35.217Z,1018.7
2022-11-27T04:21:35.216Z,1018.7
2022-11-27T04:22:35.223Z,1018.7
2022-11-27T04:23:35.223Z,1018.7
2022-11-27T04:24:35.224Z,1018.6
2022-11-27T04:25:35.218Z,1018.6
2022-11-27T04:26:35.224Z,1018.5
2022-11-27T04:27:35.467Z,1018.4
2022-11-27T04:28:35.225Z,1018.5
2022-11-27T04:29:35.215Z,1018.4
2022-11-27T04:30:35.213Z,1018.4
2022-11-27T04:31:35.281Z,1018.5
2022-11-27T04:32:35.216Z,1018.5
2022-11-27T04:33:35.235Z,1018.5
2022-11-27T04:34:35.213Z,1018.4
2022-11-27T04:35:35.217Z,1018.4
2022-11-27T04:37:35.220Z,1018.4
2022-11-27T04:38:35.225Z,1018.4
2022-11-27T04:39:35.226Z,1018.4
2022-11-27T04:40:35.222Z,1018.4
2022-11-27T04:42:35.227Z,1018.4
2022-11-27T04:43:35.219Z,1018.4
2022-11-27T04:44:35.218Z,1018.4
2022-11-27T04:45:35.220Z,1018.4
2022-11-27T04:46:35.355Z,1018.4
2022-11-27T04:47:35.223Z,1018.4
2022-11-27T04:48:35.216Z,1018.3
2022-11-27T04:49:35.221Z,1018.3
2022-11-27T04:50:35.222Z,1018.3
2022-11-27T04:51:35.224Z,1018.2
2022-11-27T04:52:35.226Z,1018.3
2022-11-27T04:53:35.618Z,1018.2
2022-11-27T04:54:35.229Z,1018.2
2022-11-27T04:55:35.218Z,1018.2
2022-11-27T04:56:35.322Z,1018.2
2022-11-27T04:57:35.222Z,1018.2
2022-11-27T04:58:35.263Z,1018.2
2022-11-27T04:59:35.212Z,1018.2
2022-11-27T05:00:35.352Z,1018.2
2022-11-27T05:01:35.225Z,1018.1
2022-11-27T05:02:35.361Z,1018.1
2022-11-27T05:03:35.215Z,1018.1
2022-11-27T05:04:35.221Z,1018.1
2022-11-27T05:05:35.214Z,1018.1
2022-11-27T05:06:35.237Z,1018.1
2022-11-27T05:07:35.327Z,1018.1
2022-11-27T05:08:35.225Z,1018
2022-11-27T05:09:35.226Z,1018.1
2022-11-27T05:10:36.105Z,1018.1
2022-11-27T05:11:35.224Z,1018.2
2022-11-27T05:12:35.222Z,1018.2
2022-11-27T05:13:35.224Z,1018.1
2022-11-27T05:14:35.221Z,1018.1
2022-11-27T05:16:35.330Z,1018.1
2022-11-27T05:17:35.343Z,1017.9
2022-11-27T05:18:35.222Z,1018
2022-11-27T05:19:35.225Z,1018
2022-11-27T05:20:35.224Z,1017.9
2022-11-27T05:21:35.252Z,1018
2022-11-27T05:22:35.222Z,1018
2022-11-27T05:23:35.224Z,1018
2022-11-27T05:24:35.238Z,1018
2022-11-27T05:25:35.220Z,1018
2022-11-27T05:26:35.219Z,1018
2022-11-27T05:27:35.224Z,1017.9
2022-11-27T05:28:35.220Z,1018
2022-11-27T05:29:35.217Z,1017.9
2022-11-27T05:30:35.216Z,1017.9
2022-11-27T05:31:35.267Z,1017.9
2022-11-27T05:32:35.235Z,1017.9
2022-11-27T05:33:35.220Z,1017.9
2022-11-27T05:34:35.246Z,1018
2022-11-27T05:35:35.213Z,1017.9
2022-11-27T05:36:35.221Z,1017.9
2022-11-27T05:37:35.224Z,1017.9
2022-11-27T05:38:35.230Z,1017.9
2022-11-27T05:39:35.216Z,1018
2022-11-27T05:40:35.236Z,1018
2022-11-27T05:41:35.223Z,1018
2022-11-27T05:42:35.222Z,1017.9
2022-11-27T05:43:35.220Z,1017.9
2022-11-27T05:44:35.249Z,1017.9
2022-11-27T05:45:35.220Z,1017.9
2022-11-27T05:46:35.276Z,1017.9
2022-11-27T05:47:35.226Z,1017.9
2022-11-27T05:48:35.343Z,1017.8
2022-11-27T05:50:35.217Z,1017.8
2022-11-27T05:51:35.244Z,1017.9
2022-11-27T05:52:35.224Z,1017.8
2022-11-27T05:53:35.228Z,1017.8
2022-11-27T05:54:35.240Z,1017.8
2022-11-27T05:55:35.228Z,1017.8
2022-11-27T05:56:35.287Z,1017.7
2022-11-27T05:57:35.221Z,1017.7
2022-11-27T05:58:35.217Z,1017.7
2022-11-27T05:59:35.221Z,1017.7
2022-11-27T06:00:35.228Z,1017.7
2022-11-27T06:01:35.270Z,1017.6
2022-11-27T06:02:35.305Z,1017.7
2022-11-27T06:03:35.292Z,1017.6
2022-11-27T06:06:35.217Z,1017.6
2022-11-27T06:07:35.309Z,1017.7
2022-11-27T06:08:35.244Z,1017.6
2022-11-27T06:09:35.220Z,1017.6
2022-11-27T06:10:42.205Z,1017.6
2022-11-27T06:11:35.217Z,1017.7
2022-11-27T06:12:35.219Z,1017.6
2022-11-27T06:13:35.228Z,1017.6
2022-11-27T06:14:35.222Z,1017.5
2022-11-27T06:15:35.214Z,1017.6
2022-11-27T06:16:35.311Z,1017.6
2022-11-27T06:17:35.242Z,1017.7
2022-11-27T06:18:35.226Z,1017.6
2022-11-27T06:19:35.357Z,1017.6
2022-11-27T06:20:37.516Z,1017.6
2022-11-27T06:21:35.219Z,1017.6
2022-11-27T06:22:35.222Z,1017.6
2022-11-27T06:23:35.225Z,1017.6
2022-11-27T06:24:35.222Z,1017.5
2022-11-27T06:25:35.222Z,1017.5
2022-11-27T06:26:35.236Z,1017.5
2022-11-27T06:27:35.233Z,1017.5
2022-11-27T06:28:35.216Z,1017.4
2022-11-27T06:29:35.267Z,1017.4
2022-11-27T06:30:35.221Z,1017.4
2022-11-27T06:31:35.295Z,1017.5
2022-11-27T06:32:35.223Z,1017.4
2022-11-27T06:33:35.228Z,1017.5
2022-11-27T06:34:35.225Z,1017.5
2022-11-27T06:35:35.231Z,1017.5
2022-11-27T06:36:35.215Z,1017.5
2022-11-27T06:37:35.226Z,1017.5
2022-11-27T06:38:35.224Z,1017.4
2022-11-27T06:39:35.240Z,1017.5
2022-11-27T06:40:35.227Z,1017.5
2022-11-27T06:41:35.231Z,1017.4
2022-11-27T06:42:35.235Z,1017.4
2022-11-27T06:43:35.230Z,1017.4
2022-11-27T06:45:35.313Z,1017.4
2022-11-27T06:46:35.217Z,1017.4
2022-11-27T06:47:35.217Z,1017.4
2022-11-27T06:48:35.230Z,1017.5
2022-11-27T06:49:35.219Z,1017.4
2022-11-27T06:50:35.336Z,1017.4
2022-11-27T06:51:35.217Z,1017.3
2022-11-27T06:52:40.156Z,1017.3
2022-11-27T06:53:35.218Z,1017.3
2022-11-27T06:54:35.226Z,1017.3
2022-11-27T06:55:35.219Z,1017.3
2022-11-27T06:56:35.234Z,1017.3
2022-11-27T06:57:35.221Z,1017.3
2022-11-27T06:58:35.217Z,1017.3
2022-11-27T06:59:35.228Z,1017.3
2022-11-27T07:00:35.282Z,1017.3
2022-11-27T07:01:35.300Z,1017.3
2022-11-27T07:02:35.325Z,1017.3
2022-11-27T07:03:35.228Z,1017.2
2022-11-27T07:04:35.220Z,1017.2
2022-11-27T07:05:35.219Z,1017.1
2022-11-27T07:06:35.223Z,1017.1
2022-11-27T07:07:38.472Z,1017
2022-11-27T07:08:35.223Z,1017
2022-11-27T07:09:35.226Z,1016.9
2022-11-27T07:11:35.219Z,1016.9
2022-11-27T07:12:35.219Z,1016.9
2022-11-27T07:13:35.243Z,1016.9
2022-11-27T07:14:35.220Z,1016.9
2022-11-27T07:15:35.222Z,1016.9
2022-11-27T07:16:35.294Z,1017
2022-11-27T07:17:35.235Z,1017
2022-11-27T07:19:35.220Z,1016.9
2022-11-27T07:20:35.230Z,1017
2022-11-27T07:21:35.367Z,1017
2022-11-27T07:22:35.223Z,1016.9
2022-11-27T07:24:35.223Z,1016.9
2022-11-27T07:25:35.225Z,1017
2022-11-27T07:26:35.224Z,1017
2022-11-27T07:27:35.227Z,1017
2022-11-27T07:28:35.225Z,1017
2022-11-27T07:29:35.225Z,1017
2022-11-27T07:30:35.218Z,1017
2022-11-27T07:31:35.326Z,1016.9
2022-11-27T07:32:35.226Z,1017
2022-11-27T07:33:35.229Z,1017
2022-11-27T07:34:35.221Z,1017
2022-11-27T07:35:35.245Z,1017
2022-11-27T07:36:35.224Z,1017
2022-11-27T07:37:35.226Z,1016.9
2022-11-27T07:38:35.216Z,1017
2022-11-27T07:40:00.751Z,1016.8
2022-11-27T07:40:35.226Z,1016.9
2022-11-27T07:41:35.231Z,1016.9
2022-11-27T07:42:39.164Z,1016.9
2022-11-27T07:43:35.229Z,1016.9
2022-11-27T07:44:35.227Z,1016.9
2022-11-27T07:45:35.278Z,1016.9
2022-11-27T07:46:35.224Z,1016.9
2022-11-27T07:47:35.232Z,1016.9
2022-11-27T07:48:35.224Z,1016.8
2022-11-27T07:49:35.225Z,1016.8
2022-11-27T07:50:35.223Z,1016.8
2022-11-27T07:51:35.225Z,1016.8
2022-11-27T07:52:40.828Z,1016.8
2022-11-27T07:53:35.221Z,1016.8
2022-11-27T07:54:35.227Z,1016.8
2022-11-27T07:55:35.240Z,1016.8
2022-11-27T07:56:35.235Z,1016.9
2022-11-27T07:57:35.222Z,1016.9
2022-11-27T07:58:35.224Z,1016.9
2022-11-27T07:59:35.225Z,1016.9
2022-11-27T08:00:35.385Z,1016.8
2022-11-27T08:01:35.337Z,1016.8
2022-11-27T08:02:35.221Z,1016.7
2022-11-27T08:03:35.229Z,1016.7
2022-11-27T08:04:35.376Z,1016.7
2022-11-27T08:05:35.232Z,1016.7
2022-11-27T08:06:35.237Z,1016.7
2022-11-27T08:07:35.331Z,1016.7
2022-11-27T08:08:35.227Z,1016.8
2022-11-27T08:09:35.253Z,1016.7
2022-11-27T08:10:35.242Z,1016.7
2022-11-27T08:11:35.236Z,1016.7
2022-11-27T08:12:35.229Z,1016.7
2022-11-27T08:13:35.230Z,1016.6
2022-11-27T08:14:35.231Z,1016.6
2022-11-27T08:15:35.232Z,1016.6
2022-11-27T08:16:35.357Z,1016.6
2022-11-27T08:17:35.229Z,1016.5
2022-11-27T08:18:35.231Z,1016.5
2022-11-27T08:19:35.220Z,1016.5
2022-11-27T08:20:35.233Z,1016.5
2022-11-27T08:21:35.227Z,1016.5
2022-11-27T08:22:35.226Z,1016.5
2022-11-27T08:23:35.356Z,1016.4
2022-11-27T08:24:35.237Z,1016.4
2022-11-27T08:25:35.222Z,1016.4
2022-11-27T08:26:35.302Z,1016.4
2022-11-27T08:27:35.226Z,1016.4
2022-11-27T08:28:35.227Z,1016.4
2022-11-27T08:29:35.229Z,1016.4
2022-11-27T08:30:35.231Z,1016.4
2022-11-27T08:31:35.322Z,1016.5
2022-11-27T08:32:35.227Z,1016.5
2022-11-27T08:33:35.233Z,1016.5
2022-11-27T08:34:35.233Z,1016.5
2022-11-27T08:35:35.228Z,1016.5
2022-11-27T08:36:35.225Z,1016.4
2022-11-27T08:37:35.234Z,1016.5
2022-11-27T08:38:35.232Z,1016.4
2022-11-27T08:39:35.220Z,1016.4
2022-11-27T08:40:35.227Z,1016.4
2022-11-27T08:41:35.230Z,1016.4
2022-11-27T08:42:35.223Z,1016.4
2022-11-27T08:43:35.225Z,1016.4
2022-11-27T08:45:35.288Z,1016.4
2022-11-27T08:46:35.218Z,1016.4
2022-11-27T08:47:35.231Z,1016.4
2022-11-27T08:48:35.227Z,1016.4
2022-11-27T08:49:36.206Z,1016.4
2022-11-27T08:50:35.262Z,1016.4
2022-11-27T08:51:35.224Z,1016.4
2022-11-27T08:52:35.229Z,1016.4
2022-11-27T08:53:35.234Z,1016.4
2022-11-27T08:54:35.349Z,1016.3
2022-11-27T08:55:35.222Z,1016.3
2022-11-27T08:56:35.223Z,1016.3
2022-11-27T08:57:35.226Z,1016.4
2022-11-27T08:58:35.228Z,1016.3
2022-11-27T08:59:35.239Z,1016.3
2022-11-27T09:00:35.294Z,1016.3
2022-11-27T09:01:35.373Z,1016.3
2022-11-27T09:02:35.270Z,1016.3
2022-11-27T09:03:35.314Z,1016.3
2022-11-27T09:04:35.288Z,1016.3
2022-11-27T09:05:35.224Z,1016.3
2022-11-27T09:06:35.266Z,1016.2
2022-11-27T09:07:35.292Z,1016.3
2022-11-27T09:08:35.233Z,1016.3
2022-11-27T09:09:35.231Z,1016.3
2022-11-27T09:10:35.226Z,1016.2
2022-11-27T09:11:35.235Z,1016.3
2022-11-27T09:12:38.220Z,1016.3
2022-11-27T09:13:35.240Z,1016.3
2022-11-27T09:14:35.233Z,1016.3
2022-11-27T09:15:35.231Z,1016.3
2022-11-27T09:16:35.296Z,1016.3
2022-11-27T09:17:35.234Z,1016.2
2022-11-27T09:19:35.229Z,1016.2
2022-11-27T09:20:35.261Z,1016.2
2022-11-27T09:21:35.231Z,1016.2
2022-11-27T09:22:35.234Z,1016.1
2022-11-27T09:24:35.224Z,1016.2
2022-11-27T09:25:35.346Z,1016.2
2022-11-27T09:26:35.224Z,1016.2
2022-11-27T09:27:35.227Z,1016.1
2022-11-27T09:28:35.238Z,1016.1
2022-11-27T09:29:35.232Z,1016.2
2022-11-27T09:30:35.248Z,1016.1
2022-11-27T09:31:35.266Z,1016.2
2022-11-27T09:32:35.230Z,1016.1
2022-11-27T09:33:35.236Z,1016.1
2022-11-27T09:34:37.646Z,1016.2
2022-11-27T09:35:35.267Z,1016.1
2022-11-27T09:36:35.233Z,1016.1
2022-11-27T09:37:35.269Z,1016
2022-11-27T09:38:35.229Z,1016
2022-11-27T09:39:35.245Z,1016
2022-11-27T09:40:35.225Z,1015.9
2022-11-27T09:41:35.229Z,1015.9
2022-11-27T09:42:35.228Z,1015.9
2022-11-27T09:43:35.232Z,1015.9
2022-11-27T09:44:35.233Z,1015.9
2022-11-27T09:45:35.278Z,1015.8
2022-11-27T09:46:35.225Z,1015.8
2022-11-27T09:47:39.962Z,1015.9
2022-11-27T09:48:35.227Z,1015.9
2022-11-27T09:49:35.234Z,1016
2022-11-27T09:50:35.229Z,1015.9
2022-11-27T09:51:35.231Z,1015.9
2022-11-27T09:52:35.245Z,1015.9
2022-11-27T09:53:35.235Z,1015.9
2022-11-27T09:54:35.233Z,1015.9
2022-11-27T09:55:35.295Z,1015.9
2022-11-27T09:56:35.348Z,1015.9
2022-11-27T09:57:35.271Z,1015.8
2022-11-27T09:58:35.231Z,1015.9
2022-11-27T09:59:35.235Z,1015.9
2022-11-27T10:00:35.226Z,1015.9
2022-11-27T10:01:44.174Z,1015.9
2022-11-27T10:02:35.454Z,1015.9
2022-11-27T10:03:35.249Z,1015.9
2022-11-27T10:04:57.858Z,1015.9
2022-11-27T10:06:35.237Z,1015.9
2022-11-27T10:07:35.320Z,1015.8
2022-11-27T10:08:35.237Z,1015.9
2022-11-27T10:09:35.230Z,1015.9
2022-11-27T10:10:35.235Z,1015.8
2022-11-27T10:11:35.264Z,1015.8
2022-11-27T10:12:35.227Z,1015.9
2022-11-27T10:13:35.240Z,1015.8
2022-11-27T10:14:35.249Z,1015.8
2022-11-27T10:15:35.236Z,1015.8
2022-11-27T10:16:36.598Z,1015.8
2022-11-27T10:17:35.228Z,1015.8
2022-11-27T10:18:35.246Z,1015.8
2022-11-27T10:19:35.232Z,1015.8
2022-11-27T10:20:35.266Z,1015.8
2022-11-27T10:21:35.236Z,1015.8
2022-11-27T10:22:35.227Z,1015.8
2022-11-27T10:23:35.234Z,1015.8
2022-11-27T10:24:35.232Z,1015.8
2022-11-27T10:25:35.232Z,1015.8
2022-11-27T10:26:35.233Z,1015.7
2022-11-27T10:27:35.354Z,1015.7
2022-11-27T10:28:35.234Z,1015.8
2022-11-27T10:29:35.236Z,1015.8
2022-11-27T10:30:35.234Z,1015.8
2022-11-27T10:31:35.343Z,1015.8
2022-11-27T10:32:54.186Z,1015.7
2022-11-27T10:33:35.233Z,1015.8
2022-11-27T10:34:35.234Z,1015.8
2022-11-27T10:35:35.231Z,1015.7
2022-11-27T10:36:35.239Z,1015.7
2022-11-27T10:37:35.239Z,1015.7
2022-11-27T10:38:35.239Z,1015.7
2022-11-27T10:39:35.241Z,1015.7
2022-11-27T10:40:35.238Z,1015.7
2022-11-27T10:41:48.802Z,1015.6
2022-11-27T10:42:35.233Z,1015.6
2022-11-27T10:43:35.239Z,1015.6
2022-11-27T10:44:35.232Z,1015.6
2022-11-27T10:45:35.300Z,1015.5
2022-11-27T10:46:35.234Z,1015.5
2022-11-27T10:47:35.233Z,1015.5
2022-11-27T10:48:35.254Z,1015.5
2022-11-27T10:49:35.235Z,1015.5
2022-11-27T10:50:35.244Z,1015.5
2022-11-27T10:51:35.232Z,1015.4
2022-11-27T10:52:35.231Z,1015.4
2022-11-27T10:53:35.239Z,1015.4
2022-11-27T10:54:35.242Z,1015.4
2022-11-27T10:55:35.234Z,1015.4
2022-11-27T10:56:35.238Z,1015.3
2022-11-27T10:57:35.240Z,1015.3
2022-11-27T10:59:35.235Z,1015.3
2022-11-27T11:00:35.242Z,1015.3
2022-11-27T11:01:35.318Z,1015.3
2022-11-27T11:02:35.324Z,1015.2
2022-11-27T11:03:35.235Z,1015.2
2022-11-27T11:05:51.038Z,1015.2
2022-11-27T11:06:35.236Z,1015.1
2022-11-27T11:07:35.305Z,1015.1
2022-11-27T11:08:35.240Z,1015.1
2022-11-27T11:10:35.242Z,1015
2022-11-27T11:11:35.258Z,1015.1
2022-11-27T11:12:35.235Z,1015
2022-11-27T11:13:35.240Z,1015
2022-11-27T11:14:35.265Z,1014.9
2022-11-27T11:15:35.262Z,1014.9
2022-11-27T11:16:36.003Z,1014.9
2022-11-27T11:17:35.340Z,1014.8
2022-11-27T11:18:35.239Z,1014.9
2022-11-27T11:19:35.242Z,1014.9
2022-11-27T11:20:35.246Z,1014.8
2022-11-27T11:21:35.239Z,1014.8
2022-11-27T11:22:35.262Z,1014.7
2022-11-27T11:23:35.241Z,1014.7
2022-11-27T11:24:35.241Z,1014.7
2022-11-27T11:25:35.233Z,1014.7
2022-11-27T11:26:35.250Z,1014.7
2022-11-27T11:27:35.233Z,1014.7
2022-11-27T11:28:39.504Z,1014.6
2022-11-27T11:29:35.392Z,1014.6
2022-11-27T11:30:35.249Z,1014.5
2022-11-27T11:31:35.300Z,1014.5
2022-11-27T11:32:35.253Z,1014.4
2022-11-27T11:33:35.265Z,1014.4
2022-11-27T11:34:35.240Z,1014.4
2022-11-27T11:35:35.242Z,1014.3
2022-11-27T11:36:35.253Z,1014.3
2022-11-27T11:37:35.237Z,1014.3
2022-11-27T11:38:35.246Z,1014.3
2022-11-27T11:39:35.244Z,1014.2
2022-11-27T11:40:35.236Z,1014.2
2022-11-27T11:41:35.249Z,1014.1
2022-11-27T11:42:35.235Z,1014
2022-11-27T11:44:35.241Z,1013.9
2022-11-27T11:45:35.349Z,1014
2022-11-27T11:46:35.311Z,1013.9
2022-11-27T11:47:35.239Z,1014
2022-11-27T11:48:35.247Z,1013.9
2022-11-27T11:49:35.244Z,1013.9
2022-11-27T11:50:35.241Z,1013.8
2022-11-27T11:51:35.239Z,1013.9
2022-11-27T11:52:35.239Z,1013.8
2022-11-27T11:53:35.272Z,1013.8
2022-11-27T11:54:35.238Z,1013.8
2022-11-27T11:55:35.247Z,1013.7
2022-11-27T11:56:35.246Z,1013.8
2022-11-27T11:57:35.238Z,1013.9
2022-11-27T11:58:35.245Z,1013.9
2022-11-27T11:59:35.252Z,1014
2022-11-27T12:01:04.459Z,1014
2022-11-27T12:01:35.237Z,1014
2022-11-27T12:02:35.310Z,1014
2022-11-27T12:03:35.247Z,1013.9
2022-11-27T12:04:35.319Z,1013.8
2022-11-27T12:05:35.246Z,1013.7
2022-11-27T12:06:35.242Z,1013.7
2022-11-27T12:07:35.309Z,1013.7
2022-11-27T12:08:35.235Z,1013.8
2022-11-27T12:09:35.246Z,1013.7
2022-11-27T12:10:35.247Z,1013.7
2022-11-27T12:11:35.244Z,1013.7
2022-11-27T12:12:35.243Z,1013.7
2022-11-27T12:13:35.264Z,1013.7
2022-11-27T12:14:35.248Z,1013.8
2022-11-27T12:15:35.246Z,1013.7
2022-11-27T12:16:35.442Z,1013.8
2022-11-27T12:17:35.240Z,1013.8
2022-11-27T12:18:35.242Z,1013.7
2022-11-27T12:19:35.277Z,1013.7
2022-11-27T12:20:35.244Z,1013.7
2022-11-27T12:21:35.242Z,1013.7
2022-11-27T12:23:35.245Z,1013.6
2022-11-27T12:24:35.249Z,1013.6
2022-11-27T12:25:35.251Z,1013.6
2022-11-27T12:26:35.239Z,1013.6
2022-11-27T12:27:35.240Z,1013.6
2022-11-27T12:28:35.253Z,1013.6
2022-11-27T12:29:35.251Z,1013.6
2022-11-27T12:30:35.253Z,1013.6
2022-11-27T12:31:36.185Z,1013.6
2022-11-27T12:32:35.244Z,1013.6
2022-11-27T12:33:35.277Z,1013.6
2022-11-27T12:34:35.255Z,1013.6
2022-11-27T12:35:35.244Z,1013.5
2022-11-27T12:36:35.242Z,1013.6
2022-11-27T12:37:35.249Z,1013.5
2022-11-27T12:38:35.244Z,1013.5
2022-11-27T12:39:35.245Z,1013.6
2022-11-27T12:40:35.248Z,1013.5
2022-11-27T12:41:35.249Z,1013.5
2022-11-27T12:42:35.243Z,1013.5
2022-11-27T12:43:35.241Z,1013.5
2022-11-27T12:44:35.250Z,1013.5
2022-11-27T12:45:35.354Z,1013.5
2022-11-27T12:46:35.251Z,1013.5
2022-11-27T12:47:38.922Z,1013.5
2022-11-27T12:48:35.249Z,1013.5
2022-11-27T12:49:35.263Z,1013.4
2022-11-27T12:50:35.244Z,1013.4
2022-11-27T12:51:35.248Z,1013.5
2022-11-27T12:52:35.237Z,1013.4
2022-11-27T12:53:35.244Z,1013.4
2022-11-27T12:54:35.250Z,1013.3
2022-11-27T12:55:35.250Z,1013.4
2022-11-27T12:56:35.454Z,1013.3
2022-11-27T12:57:35.249Z,1013.3
2022-11-27T12:58:35.248Z,1013.3
2022-11-27T12:59:35.241Z,1013.2
2022-11-27T13:00:35.252Z,1013.2